createdAt,value
2022-10-31T00:00:11.238Z,83.48
2022-10-31T00:03:05.681Z,83.67
2022-10-31T00:06:53.658Z,83.60
2022-10-31T00:09:25.408Z,83.02
2022-10-31T00:11:57.356Z,82.92
2022-10-31T00:14:27.714Z,82.96
2022-10-31T00:17:02.123Z,83.38
2022-10-31T00:19:31.723Z,83.84
2022-10-31T00:22:02.179Z,84.15
2022-10-31T00:24:31.199Z,84.39
2022-10-31T00:27:03.491Z,84.16
2022-10-31T00:29:32.446Z,84.01
2022-10-31T00:32:06.358Z,84.37
2022-10-31T00:34:39.536Z,84.46
2022-10-31T00:37:09.588Z,84.04
2022-10-31T00:39:43.093Z,83.87
2022-10-31T00:42:16.076Z,83.86
2022-10-31T00:44:48.431Z,84.19
2022-10-31T00:47:19.003Z,84.35
2022-10-31T00:52:47.530Z,84.52
2022-10-31T00:55:19.393Z,84.44
2022-10-31T00:57:49.451Z,84.52
2022-10-31T01:00:20.665Z,84.32
2022-10-31T01:02:53.164Z,84.15
2022-10-31T01:05:23.829Z,83.94
2022-10-31T01:07:58.987Z,84.05
2022-10-31T01:10:30.853Z,84.23
2022-10-31T01:13:00.502Z,83.85
2022-10-31T01:15:31.217Z,83.55
2022-10-31T01:18:03.020Z,83.67
2022-10-31T01:20:33.784Z,83.73
2022-10-31T01:23:06.498Z,83.88
2022-10-31T01:25:35.652Z,84.06
2022-10-31T01:28:05.265Z,84.17
2022-10-31T01:30:36.816Z,84.00
2022-10-31T01:33:07.594Z,83.95
2022-10-31T01:35:36.854Z,83.90
2022-10-31T01:38:08.337Z,83.90
2022-10-31T01:40:39.326Z,84.13
2022-10-31T01:43:16.064Z,84.27
2022-10-31T01:45:51.740Z,84.21
2022-10-31T01:48:24.334Z,84.31
2022-10-31T01:50:59.520Z,84.53
2022-10-31T01:53:30.911Z,84.40
2022-10-31T01:56:01.541Z,84.19
2022-10-31T01:58:33.647Z,84.32
2022-10-31T02:01:07.912Z,84.05
2022-10-31T02:03:39.074Z,83.83
2022-10-31T02:06:57.142Z,83.84
2022-10-31T02:09:27.975Z,82.89
2022-10-31T02:11:59.688Z,83.24
2022-10-31T02:14:34.816Z,83.75
2022-10-31T02:17:09.142Z,83.62
2022-10-31T02:20:22.712Z,83.51
2022-10-31T02:23:14.461Z,83.82
2022-10-31T02:25:49.359Z,83.81
2022-10-31T02:28:36.759Z,83.93
2022-10-31T02:31:26.394Z,84.06
2022-10-31T02:34:02.818Z,84.26
2022-10-31T02:36:42.583Z,84.55
2022-10-31T02:39:17.528Z,84.06
2022-10-31T02:42:05.882Z,84.01
2022-10-31T02:44:50.565Z,83.66
2022-10-31T02:47:27.383Z,83.80
2022-10-31T02:50:27.846Z,83.50
2022-10-31T02:59:54.791Z,83.88
2022-10-31T03:02:57.830Z,83.49
2022-10-31T03:05:47.977Z,83.21
2022-10-31T03:08:29.342Z,83.50
2022-10-31T03:11:09.722Z,83.51
2022-10-31T03:13:43.458Z,83.86
2022-10-31T03:16:29.620Z,83.93
2022-10-31T03:19:08.133Z,84.43
2022-10-31T03:21:57.502Z,84.39
2022-10-31T03:24:32.470Z,84.84
2022-10-31T03:27:05.200Z,84.95
2022-10-31T03:29:38.517Z,84.98
2022-10-31T03:32:31.786Z,85.38
2022-10-31T03:35:04.153Z,85.55
2022-10-31T03:37:37.897Z,85.87
2022-10-31T03:40:11.198Z,85.74
2022-10-31T03:42:45.084Z,86.02
2022-10-31T03:45:22.129Z,85.94
2022-10-31T03:47:56.788Z,85.46
2022-10-31T03:50:41.740Z,85.38
2022-10-31T03:53:17.924Z,85.26
2022-10-31T03:56:00.039Z,85.31
2022-10-31T03:58:40.648Z,84.97
2022-10-31T04:01:16.226Z,85.35
2022-10-31T04:03:47.024Z,85.51
2022-10-31T04:07:33.018Z,85.38
2022-10-31T04:10:08.943Z,85.53
2022-10-31T04:12:41.216Z,85.69
2022-10-31T04:15:23.112Z,85.63
2022-10-31T04:17:55.274Z,85.54
2022-10-31T04:20:35.150Z,85.58
2022-10-31T04:23:18.812Z,85.71
2022-10-31T04:25:48.472Z,85.69
2022-10-31T04:30:50.956Z,85.69
2022-10-31T04:33:21.565Z,85.66
2022-10-31T04:35:51.210Z,85.97
2022-10-31T04:38:21.369Z,85.96
2022-10-31T04:40:52.186Z,85.87
2022-10-31T04:43:46.654Z,86.01
2022-10-31T04:46:17.977Z,86.14
2022-10-31T04:48:51.657Z,86.10
2022-10-31T04:51:25.335Z,86.12
2022-10-31T04:53:55.867Z,86.20
2022-10-31T04:56:44.650Z,86.21
2022-10-31T04:59:20.923Z,86.24
2022-10-31T05:02:01.804Z,86.27
2022-10-31T05:04:43.249Z,86.32
2022-10-31T05:11:50.318Z,86.29
2022-10-31T05:14:46.104Z,86.47
2022-10-31T05:17:37.506Z,86.49
2022-10-31T05:20:44.571Z,86.40
2022-10-31T05:23:38.677Z,86.48
2022-10-31T05:26:09.519Z,86.37
2022-10-31T05:28:40.638Z,86.43
2022-10-31T05:31:13.552Z,86.50
2022-10-31T05:33:43.988Z,86.63
2022-10-31T05:36:34.781Z,86.50
2022-10-31T05:39:14.787Z,86.59
2022-10-31T05:41:45.809Z,86.51
2022-10-31T05:44:22.432Z,86.65
2022-10-31T05:47:09.948Z,86.63
2022-10-31T05:50:15.745Z,86.78
2022-10-31T05:53:04.532Z,86.76
2022-10-31T05:55:37.451Z,86.64
2022-10-31T05:58:46.849Z,86.68
2022-10-31T06:01:53.022Z,86.56
2022-10-31T06:04:52.540Z,86.33
2022-10-31T06:07:39.679Z,86.36
2022-10-31T06:10:14.890Z,86.29
2022-10-31T06:12:45.834Z,86.22
2022-10-31T06:15:35.385Z,86.09
2022-10-31T06:18:07.914Z,86.08
2022-10-31T06:20:42.879Z,86.13
2022-10-31T06:23:18.861Z,85.72
2022-10-31T06:25:52.638Z,85.65
2022-10-31T06:28:23.897Z,85.54
2022-10-31T06:31:05.139Z,85.42
2022-10-31T06:33:39.120Z,85.57
2022-10-31T06:36:17.341Z,85.35
2022-10-31T06:38:52.358Z,84.63
2022-10-31T06:41:25.921Z,84.04
2022-10-31T06:44:00.581Z,83.39
2022-10-31T06:47:02.029Z,82.48
2022-10-31T06:49:53.788Z,81.78
2022-10-31T06:52:26.238Z,80.25
2022-10-31T06:54:56.958Z,79.53
2022-10-31T06:57:28.326Z,78.97
2022-10-31T07:00:01.390Z,78.76
2022-10-31T07:03:06.437Z,78.72
2022-10-31T07:09:53.845Z,79.21
2022-10-31T07:12:30.370Z,80.00
2022-10-31T07:15:03.000Z,80.50
2022-10-31T07:17:32.081Z,80.76
2022-10-31T07:20:02.358Z,81.24
2022-10-31T07:22:37.933Z,81.31
2022-10-31T07:25:09.117Z,81.90
2022-10-31T07:27:57.840Z,82.07
2022-10-31T07:30:27.691Z,82.34
2022-10-31T07:32:59.585Z,82.40
2022-10-31T07:35:52.781Z,82.24
2022-10-31T07:38:23.823Z,82.26
2022-10-31T07:40:54.887Z,82.35
2022-10-31T07:43:25.089Z,82.30
2022-10-31T07:46:18.209Z,82.07
2022-10-31T07:49:04.631Z,81.95
2022-10-31T07:51:52.641Z,82.08
2022-10-31T07:54:56.834Z,82.14
2022-10-31T07:57:28.444Z,82.12
2022-10-31T08:00:00.131Z,82.10
2022-10-31T08:02:30.740Z,81.31
2022-10-31T08:05:26.020Z,79.06
2022-10-31T08:08:15.717Z,77.83
2022-10-31T08:10:47.831Z,76.00
2022-10-31T08:13:17.971Z,75.38
2022-10-31T08:15:51.961Z,74.74
2022-10-31T08:18:25.252Z,74.33
2022-10-31T08:20:55.486Z,73.92
2022-10-31T08:23:26.280Z,73.13
2022-10-31T08:25:56.669Z,72.00
2022-10-31T08:28:25.689Z,71.74
2022-10-31T08:30:55.977Z,70.76
2022-10-31T08:33:45.069Z,70.94
2022-10-31T08:36:23.290Z,70.85
2022-10-31T08:39:04.591Z,70.20
2022-10-31T08:41:37.379Z,69.76
2022-10-31T08:44:12.715Z,69.51
2022-10-31T08:46:45.988Z,69.18
2022-10-31T08:49:18.775Z,67.36
2022-10-31T08:51:50.725Z,66.30
2022-10-31T08:54:19.742Z,66.81
2022-10-31T08:57:18.543Z,67.09
2022-10-31T08:59:49.180Z,66.89
2022-10-31T09:02:24.673Z,67.12
2022-10-31T09:04:58.903Z,67.04
2022-10-31T09:08:01.912Z,66.74
2022-10-31T09:10:37.714Z,66.07
2022-10-31T09:13:12.637Z,66.52
2022-10-31T09:16:00.880Z,66.92
2022-10-31T09:18:33.497Z,66.22
2022-10-31T09:21:06.053Z,65.28
2022-10-31T09:23:35.200Z,64.83
2022-10-31T09:26:05.518Z,64.97
2022-10-31T09:28:46.364Z,64.27
2022-10-31T09:31:17.797Z,64.27
2022-10-31T09:33:55.499Z,63.28
2022-10-31T09:36:33.727Z,63.23
2022-10-31T09:39:04.098Z,62.20
2022-10-31T09:41:57.087Z,62.20
2022-10-31T09:44:48.102Z,62.04
2022-10-31T09:47:59.667Z,62.36
2022-10-31T09:50:43.984Z,62.61
2022-10-31T09:53:38.296Z,61.79
2022-10-31T09:56:19.270Z,62.15
2022-10-31T09:58:55.328Z,61.57
2022-10-31T10:01:33.275Z,61.25
2022-10-31T10:04:20.924Z,61.26
2022-10-31T10:12:16.424Z,59.08
2022-10-31T10:14:54.185Z,59.27
2022-10-31T10:17:40.669Z,59.18
2022-10-31T10:20:25.477Z,59.19
2022-10-31T10:23:21.745Z,59.05
2022-10-31T10:26:00.441Z,58.89
2022-10-31T10:28:39.593Z,58.97
2022-10-31T10:31:17.468Z,58.51
2022-10-31T10:33:59.826Z,58.91
2022-10-31T10:36:42.201Z,58.27
2022-10-31T10:39:32.440Z,57.71
2022-10-31T10:42:20.439Z,57.67
2022-10-31T10:45:10.981Z,57.72
2022-10-31T10:47:47.750Z,57.36
2022-10-31T10:50:34.670Z,56.72
2022-10-31T10:53:33.798Z,56.73
2022-10-31T10:56:24.084Z,56.82
2022-10-31T10:58:56.020Z,57.41
2022-10-31T11:01:27.059Z,57.27
2022-10-31T11:03:57.897Z,57.25
2022-10-31T11:11:32.240Z,56.71
2022-10-31T11:14:26.593Z,56.46
2022-10-31T11:17:10.685Z,55.94
2022-10-31T11:19:41.784Z,56.01
2022-10-31T11:22:20.278Z,56.81
2022-10-31T11:24:53.075Z,56.53
2022-10-31T11:27:26.547Z,56.28
2022-10-31T11:30:07.000Z,55.61
2022-10-31T11:32:36.293Z,55.22
2022-10-31T11:35:13.773Z,55.61
2022-10-31T11:37:47.013Z,55.35
2022-10-31T11:40:28.808Z,55.01
2022-10-31T11:43:01.617Z,54.86
2022-10-31T11:45:38.034Z,55.24
2022-10-31T11:48:19.561Z,55.43
2022-10-31T11:50:56.394Z,55.12
2022-10-31T11:53:32.423Z,54.64
2022-10-31T11:56:17.701Z,55.19
2022-10-31T11:59:03.962Z,55.38
2022-10-31T12:01:34.643Z,54.94
2022-10-31T12:04:10.997Z,54.43
2022-10-31T12:06:44.332Z,54.79
2022-10-31T12:09:24.355Z,54.95
2022-10-31T12:12:11.731Z,54.94
2022-10-31T12:15:01.592Z,54.40
2022-10-31T12:18:00.299Z,54.54
2022-10-31T12:20:59.173Z,54.94
2022-10-31T12:24:02.254Z,55.31
2022-10-31T12:27:03.010Z,54.72
2022-10-31T12:29:32.891Z,55.40
2022-10-31T12:32:45.594Z,55.57
2022-10-31T12:35:45.021Z,55.74
2022-10-31T12:38:19.766Z,55.89
2022-10-31T12:40:59.254Z,55.37
2022-10-31T12:43:43.387Z,55.23
2022-10-31T12:46:37.040Z,55.27
2022-10-31T12:49:44.583Z,55.43
2022-10-31T12:52:27.156Z,55.56
2022-10-31T12:55:26.334Z,55.99
2022-10-31T12:58:12.554Z,56.12
2022-10-31T13:00:49.036Z,56.24
2022-10-31T13:03:38.559Z,56.06
2022-10-31T13:06:18.425Z,56.39
2022-10-31T13:13:21.299Z,56.80
2022-10-31T13:16:03.288Z,57.10
2022-10-31T13:18:40.082Z,57.21
2022-10-31T13:21:21.795Z,57.46
2022-10-31T13:23:53.821Z,57.66
2022-10-31T13:26:48.049Z,57.86
2022-10-31T13:30:09.765Z,58.00
2022-10-31T13:32:53.386Z,58.32
2022-10-31T13:35:43.520Z,58.15
2022-10-31T13:38:32.370Z,58.17
2022-10-31T13:41:10.915Z,58.69
2022-10-31T13:48:43.016Z,59.18
2022-10-31T13:51:30.366Z,59.36
2022-10-31T13:54:11.208Z,59.39
2022-10-31T13:57:03.958Z,59.51
2022-10-31T13:59:39.496Z,59.72
2022-10-31T14:02:31.123Z,59.86
2022-10-31T14:08:55.230Z,60.18
2022-10-31T14:14:51.809Z,60.25
2022-10-31T14:17:35.186Z,60.53
2022-10-31T14:20:44.863Z,60.86
2022-10-31T14:24:17.059Z,60.97
2022-10-31T14:26:56.026Z,61.07
2022-10-31T14:29:33.285Z,61.17
2022-10-31T14:33:27.558Z,61.42
2022-10-31T14:50:17.887Z,62.35
2022-10-31T15:06:20.537Z,62.96
2022-10-31T15:10:40.385Z,62.89
2022-10-31T15:13:41.745Z,63.14
2022-10-31T15:26:40.358Z,63.52
2022-10-31T15:33:01.807Z,63.92
2022-10-31T15:35:34.299Z,64.04
2022-10-31T15:38:19.006Z,64.16
2022-10-31T15:41:02.006Z,64.18
2022-10-31T15:43:39.098Z,64.33
2022-10-31T15:46:27.926Z,64.38
2022-10-31T15:49:03.370Z,64.66
2022-10-31T15:51:36.217Z,64.63
2022-10-31T15:54:05.666Z,64.70
2022-10-31T15:56:36.057Z,64.72
2022-10-31T15:59:06.266Z,64.79
2022-10-31T16:01:37.243Z,64.91
2022-10-31T16:04:14.269Z,64.94
2022-10-31T16:06:44.888Z,65.15
2022-10-31T16:09:34.245Z,65.34
2022-10-31T16:12:21.439Z,65.31
2022-10-31T16:14:56.824Z,65.34
2022-10-31T16:17:28.074Z,65.25
2022-10-31T16:20:03.686Z,65.30
2022-10-31T16:22:38.671Z,65.50
2022-10-31T16:25:20.676Z,65.59
2022-10-31T16:27:54.750Z,65.80
2022-10-31T16:30:46.945Z,65.77
2022-10-31T16:33:31.587Z,65.85
2022-10-31T16:36:30.002Z,65.90
2022-10-31T16:38:58.420Z,66.08
2022-10-31T16:41:31.784Z,66.11
2022-10-31T16:44:05.921Z,66.11
2022-10-31T16:46:35.882Z,66.24
2022-10-31T16:49:07.457Z,66.26
2022-10-31T16:51:37.626Z,66.07
2022-10-31T16:54:07.627Z,66.29
2022-10-31T16:56:41.652Z,66.25
2022-10-31T16:59:16.337Z,66.38
2022-10-31T17:01:50.129Z,66.41
2022-10-31T17:04:20.151Z,66.54
2022-10-31T17:06:51.778Z,66.45
2022-10-31T17:09:28.207Z,66.50
2022-10-31T17:12:01.412Z,66.71
2022-10-31T17:14:31.224Z,66.77
2022-10-31T17:17:00.838Z,66.78
2022-10-31T17:19:32.926Z,66.91
2022-10-31T17:22:03.783Z,67.02
2022-10-31T17:24:35.546Z,66.91
2022-10-31T17:27:04.916Z,66.93
2022-10-31T17:29:34.287Z,66.95
2022-10-31T17:32:08.315Z,67.22
2022-10-31T17:34:42.044Z,67.39
2022-10-31T17:37:13.911Z,67.53
2022-10-31T17:39:43.030Z,67.64
2022-10-31T17:42:15.896Z,67.83
2022-10-31T17:44:47.666Z,67.85
2022-10-31T17:47:21.617Z,67.86
2022-10-31T17:49:53.547Z,67.93
2022-10-31T17:52:25.309Z,68.05
2022-10-31T17:54:56.400Z,68.09
2022-10-31T17:57:34.305Z,68.11
2022-10-31T18:00:08.360Z,68.26
2022-10-31T18:02:41.685Z,68.31
2022-10-31T18:05:12.565Z,68.31
2022-10-31T18:07:46.355Z,68.42
2022-10-31T18:10:15.977Z,68.48
2022-10-31T18:12:50.304Z,68.53
2022-10-31T18:15:20.805Z,68.49
2022-10-31T18:17:50.784Z,68.71
2022-10-31T18:20:20.547Z,68.68
2022-10-31T18:22:50.580Z,68.75
2022-10-31T18:25:20.038Z,68.88
2022-10-31T18:27:49.977Z,68.75
2022-10-31T18:30:21.964Z,68.95
2022-10-31T18:32:53.264Z,69.07
2022-10-31T18:35:23.411Z,69.18
2022-10-31T18:37:56.071Z,69.13
2022-10-31T18:40:28.475Z,69.24
2022-10-31T18:42:58.606Z,69.25
2022-10-31T18:45:58.428Z,69.27
2022-10-31T18:48:20.686Z,69.48
2022-10-31T18:50:50.422Z,69.60
2022-10-31T18:53:20.442Z,69.70
2022-10-31T18:55:50.774Z,69.81
2022-10-31T18:58:19.944Z,69.58
2022-10-31T19:00:52.278Z,69.49
2022-10-31T19:03:26.481Z,69.38
2022-10-31T19:10:14.936Z,69.92
2022-10-31T19:12:45.844Z,69.98
2022-10-31T19:15:18.606Z,70.04
2022-10-31T19:20:36.613Z,69.93
2022-10-31T19:23:06.878Z,70.13
2022-10-31T19:28:13.247Z,70.34
2022-10-31T19:30:42.802Z,70.37
2022-10-31T19:33:12.514Z,70.48
2022-10-31T19:35:46.032Z,70.44
2022-10-31T19:38:26.424Z,70.42
2022-10-31T19:41:01.434Z,70.71
2022-10-31T19:43:32.354Z,70.77
2022-10-31T19:46:06.197Z,70.79
2022-10-31T19:48:40.535Z,70.79
2022-10-31T19:51:13.880Z,70.84
2022-10-31T19:53:45.403Z,70.83
2022-10-31T19:56:17.124Z,71.05
2022-10-31T19:58:49.184Z,70.86
2022-10-31T20:01:23.438Z,70.88
2022-10-31T20:03:56.705Z,71.07
2022-10-31T20:06:57.482Z,71.07
2022-10-31T20:09:27.561Z,71.10
2022-10-31T20:11:59.087Z,71.29
2022-10-31T20:14:30.502Z,71.36
2022-10-31T20:17:03.125Z,71.48
2022-10-31T20:19:36.604Z,71.47
2022-10-31T20:22:07.484Z,71.51
2022-10-31T20:24:38.385Z,71.48
2022-10-31T20:27:09.819Z,71.63
2022-10-31T20:29:46.035Z,71.60
2022-10-31T20:32:47.537Z,71.62
2022-10-31T20:35:21.988Z,71.82
2022-10-31T20:37:52.696Z,71.83
2022-10-31T20:40:24.615Z,72.09
2022-10-31T20:42:57.125Z,71.86
2022-10-31T20:45:27.674Z,71.92
2022-10-31T20:48:02.572Z,72.08
2022-10-31T20:50:50.505Z,72.15
2022-10-31T20:53:22.564Z,72.15
2022-10-31T20:56:07.526Z,72.20
2022-10-31T20:58:56.612Z,72.31
2022-10-31T21:01:52.443Z,72.35
2022-10-31T21:05:25.961Z,72.26
2022-10-31T21:08:40.501Z,72.26
2022-10-31T21:11:36.964Z,72.29
2022-10-31T21:14:59.474Z,72.46
2022-10-31T21:18:00.534Z,72.32
2022-10-31T21:20:48.765Z,72.56
2022-10-31T21:30:32.964Z,72.66
2022-10-31T21:34:42.873Z,72.90
2022-10-31T21:36:43.813Z,72.82
2022-10-31T21:39:17.307Z,72.93
2022-10-31T21:41:52.892Z,73.05
2022-10-31T21:44:26.691Z,73.05
2022-10-31T21:47:00.310Z,73.07
2022-10-31T21:49:31.973Z,73.10
2022-10-31T21:52:03.603Z,73.19
2022-10-31T21:54:37.648Z,72.89
2022-10-31T21:57:07.017Z,72.89
2022-10-31T21:59:46.166Z,73.04
2022-10-31T22:02:18.310Z,73.13
2022-10-31T22:04:51.426Z,73.06
2022-10-31T22:07:46.950Z,73.29
2022-10-31T22:10:17.207Z,73.23
2022-10-31T22:12:46.976Z,73.22
2022-10-31T22:15:23.172Z,73.41
2022-10-31T22:17:54.688Z,73.44
2022-10-31T22:20:24.971Z,73.56
2022-10-31T22:22:54.321Z,73.67
2022-10-31T22:25:26.581Z,73.66
2022-10-31T22:27:55.560Z,73.67
2022-10-31T22:30:27.987Z,73.79
2022-10-31T22:32:57.092Z,73.90
2022-10-31T22:35:30.893Z,73.84
2022-10-31T22:38:01.668Z,73.93
2022-10-31T22:40:33.202Z,74.05
2022-10-31T22:43:04.305Z,74.09
2022-10-31T22:45:35.091Z,74.02
2022-10-31T22:48:05.673Z,73.93
2022-10-31T22:50:36.100Z,73.98
2022-10-31T22:53:07.577Z,74.18
2022-10-31T22:55:39.019Z,74.16
2022-10-31T22:58:09.681Z,74.27
2022-10-31T23:00:42.555Z,74.37
2022-10-31T23:03:14.590Z,74.26
2022-10-31T23:05:56.683Z,74.46
2022-10-31T23:08:29.945Z,74.31
2022-10-31T23:11:00.532Z,74.57
2022-10-31T23:13:51.381Z,74.78
2022-10-31T23:16:22.091Z,74.59
2022-10-31T23:18:51.341Z,74.63
2022-10-31T23:21:39.376Z,74.69
2022-10-31T23:24:11.005Z,74.93
2022-10-31T23:27:01.246Z,74.82
2022-10-31T23:29:33.331Z,74.66
2022-10-31T23:32:06.187Z,74.85
2022-10-31T23:34:38.687Z,74.87
2022-10-31T23:37:09.631Z,74.94
2022-10-31T23:39:41.794Z,74.78
2022-10-31T23:42:14.827Z,74.76
2022-10-31T23:44:44.095Z,74.92
2022-10-31T23:47:14.150Z,75.08
2022-10-31T23:49:44.049Z,75.20
2022-10-31T23:52:16.602Z,75.22
2022-10-31T23:54:46.368Z,75.29
2022-10-31T23:57:17.640Z,75.08
2022-10-31T23:59:49.277Z,75.19
